Snoqualmie River: Middle Fork station

back to: Snoqualmie river
Middle Fork station Summary - (NOAA Hydrograph: TANW1)
Latest reading:
Thu12/12 07:15 am 3.33 ft 1031 cfs (+48/hr)
Past 24hr max:
Thu12/12 07:15 am 3.33 ft 1031 cfs
Forecasted crests: (published Thu 12/12/19 05:47 am)
Thu12/12 10:00 pm 4.0 ft 1485 cfs
Sat12/14 10:00 pm 2.65 ft 665 cfs
Thu12/19 04:00 pm 2.31 ft 524 cfs

Middle Fork station Details

Latest Readings

Last 100 Readings:
Thu12/12 07:15 am 3.33 ft 1031 cfs
Thu12/12 07:00 am 3.31 ft 1019 cfs
Thu12/12 06:45 am 3.31 ft 1019 cfs
Thu12/12 06:30 am 3.31 ft 1019 cfs
Thu12/12 06:15 am 3.28 ft 1001 cfs
Thu12/12 06:00 am 3.29 ft 1007 cfs
Thu12/12 05:45 am 3.26 ft 989 cfs
Thu12/12 05:30 am 3.24 ft 977 cfs
Thu12/12 05:15 am 3.19 ft 947 cfs
Thu12/12 05:00 am 3.2 ft 953 cfs
Thu12/12 04:45 am 3.17 ft 936 cfs
Thu12/12 04:30 am 3.1 ft 896 cfs
Thu12/12 04:15 am 3.1 ft 896 cfs
Thu12/12 04:00 am 3.08 ft 885 cfs
Thu12/12 03:45 am 3.06 ft 874 cfs
Thu12/12 03:30 am 3.05 ft 869 cfs
Thu12/12 03:15 am 3.01 ft 847 cfs
Thu12/12 03:00 am 2.97 ft 826 cfs
Thu12/12 02:45 am 2.96 ft 820 cfs
Thu12/12 02:30 am 2.97 ft 826 cfs
Thu12/12 02:15 am 2.9 ft 789 cfs
Thu12/12 02:00 am 2.87 ft 774 cfs
Thu12/12 01:45 am 2.87 ft 774 cfs
Thu12/12 01:30 am 2.82 ft 749 cfs
Thu12/12 01:15 am 2.82 ft 749 cfs
Thu12/12 01:00 am 2.78 ft 729 cfs
Thu12/12 12:45 am 2.78 ft 729 cfs
Thu12/12 12:30 am 2.75 ft 714 cfs
Thu12/12 12:15 am 2.72 ft 700 cfs
Thu12/12 12:00 am 2.71 ft 695 cfs
Wed12/11 11:45 pm 2.74 ft 709 cfs
Wed12/11 11:30 pm 2.7 ft 690 cfs
Wed12/11 11:15 pm 2.7 ft 690 cfs
Wed12/11 11:00 pm 2.67 ft 676 cfs
Wed12/11 10:45 pm 2.68 ft 681 cfs
Wed12/11 10:30 pm 2.67 ft 676 cfs
Wed12/11 10:15 pm 2.68 ft 681 cfs
Wed12/11 10:00 pm 2.63 ft 658 cfs
Wed12/11 09:45 pm 2.64 ft 663 cfs
Wed12/11 09:30 pm 2.66 ft 672 cfs
Wed12/11 09:15 pm 2.63 ft 658 cfs
Wed12/11 09:00 pm 2.65 ft 667 cfs
Wed12/11 08:45 pm 2.65 ft 667 cfs
Wed12/11 08:30 pm 2.62 ft 653 cfs
Wed12/11 08:15 pm 2.63 ft 658 cfs
Wed12/11 08:00 pm 2.64 ft 663 cfs
Wed12/11 07:45 pm 2.63 ft 658 cfs
Wed12/11 07:30 pm 2.63 ft 658 cfs
Wed12/11 07:15 pm 2.59 ft 640 cfs
Wed12/11 07:00 pm 2.6 ft 644 cfs
Wed12/11 06:45 pm 2.6 ft 644 cfs
Wed12/11 06:30 pm 2.6 ft 644 cfs
Wed12/11 06:15 pm 2.59 ft 640 cfs
Wed12/11 06:00 pm 2.63 ft 658 cfs
Wed12/11 05:45 pm 2.6 ft 644 cfs
Wed12/11 05:30 pm 2.62 ft 653 cfs
Wed12/11 05:15 pm 2.61 ft 649 cfs
Wed12/11 05:00 pm 2.6 ft 644 cfs
Wed12/11 04:45 pm 2.61 ft 649 cfs
Wed12/11 04:30 pm 2.61 ft 649 cfs
Wed12/11 04:15 pm 2.59 ft 640 cfs
Wed12/11 04:00 pm 2.6 ft 644 cfs
Wed12/11 03:45 pm 2.6 ft 644 cfs
Wed12/11 03:30 pm 2.59 ft 640 cfs
Wed12/11 03:15 pm 2.61 ft 649 cfs
Wed12/11 03:00 pm 2.58 ft 635 cfs
Wed12/11 02:45 pm 2.59 ft 640 cfs
Wed12/11 02:30 pm 2.57 ft 631 cfs
Wed12/11 02:15 pm 2.6 ft 644 cfs
Wed12/11 02:00 pm 2.6 ft 644 cfs
Wed12/11 01:45 pm 2.61 ft 649 cfs
Wed12/11 01:30 pm 2.61 ft 649 cfs
Wed12/11 01:15 pm 2.58 ft 635 cfs
Wed12/11 01:00 pm 2.6 ft 644 cfs
Wed12/11 12:45 pm 2.6 ft 644 cfs
Wed12/11 12:30 pm 2.6 ft 644 cfs
Wed12/11 12:15 pm 2.57 ft 631 cfs
Wed12/11 12:00 pm 2.6 ft 644 cfs
Wed12/11 11:45 am 2.59 ft 640 cfs
Wed12/11 11:30 am 2.6 ft 644 cfs
Wed12/11 11:15 am 2.62 ft 653 cfs
Wed12/11 11:00 am 2.6 ft 644 cfs
Wed12/11 10:45 am 2.65 ft 667 cfs
Wed12/11 10:30 am 2.59 ft 640 cfs
Wed12/11 10:15 am 2.59 ft 640 cfs
Wed12/11 10:00 am 2.6 ft 644 cfs
Wed12/11 09:45 am 2.62 ft 653 cfs
Wed12/11 09:30 am 2.63 ft 658 cfs
Wed12/11 09:15 am 2.6 ft 644 cfs
Wed12/11 09:00 am 2.58 ft 635 cfs
Wed12/11 08:45 am 2.62 ft 653 cfs
Wed12/11 08:30 am 2.61 ft 649 cfs
Wed12/11 08:15 am 2.64 ft 663 cfs
Wed12/11 08:00 am 2.62 ft 653 cfs
Wed12/11 07:45 am 2.63 ft 658 cfs
Wed12/11 07:30 am 2.62 ft 653 cfs
Wed12/11 07:15 am 2.62 ft 653 cfs
Wed12/11 07:00 am 2.6 ft 644 cfs
Wed12/11 06:45 am 2.62 ft 653 cfs
Wed12/11 06:30 am 2.6 ft 644 cfs

Latest Forecasts

Currently Forecasted Readings:
Thu12/12 10:00 am 3.56 ft 1174 cfs
Thu12/12 04:00 pm 3.76 ft 1313 cfs
Thu12/12 10:00 pm 4.0 ft 1485 cfs
Fri12/13 04:00 am 3.9 ft 1412 cfs
Fri12/13 10:00 am 3.63 ft 1220 cfs
Fri12/13 04:00 pm 3.35 ft 1043 cfs
Fri12/13 10:00 pm 3.1 ft 893 cfs
Sat12/14 04:00 am 2.86 ft 768 cfs
Sat12/14 10:00 am 2.68 ft 681 cfs
Sat12/14 04:00 pm 2.63 ft 658 cfs
Sat12/14 10:00 pm 2.65 ft 665 cfs
Sun12/15 04:00 am 2.51 ft 604 cfs
Sun12/15 10:00 am 2.39 ft 555 cfs
Sun12/15 04:00 pm 2.29 ft 515 cfs
Sun12/15 10:00 pm 2.2 ft 481 cfs
Mon12/16 04:00 am 2.12 ft 453 cfs
Mon12/16 10:00 am 2.06 ft 429 cfs
Mon12/16 04:00 pm 2.03 ft 418 cfs
Mon12/16 10:00 pm 2.01 ft 413 cfs
Tue12/17 04:00 am 1.94 ft 390 cfs
Tue12/17 10:00 am 1.86 ft 365 cfs
Tue12/17 04:00 pm 1.8 ft 345 cfs
Tue12/17 10:00 pm 1.74 ft 327 cfs
Wed12/18 04:00 am 1.69 ft 313 cfs
Wed12/18 10:00 am 1.64 ft 301 cfs
Wed12/18 04:00 pm 1.65 ft 301 cfs
Wed12/18 10:00 pm 1.73 ft 326 cfs
Thu12/19 04:00 am 1.88 ft 371 cfs
Thu12/19 10:00 am 2.21 ft 486 cfs
Thu12/19 04:00 pm 2.31 ft 524 cfs
Thu12/19 10:00 pm 2.31 ft 520 cfs
Fri12/20 04:00 am 2.44 ft 577 cfs
Fri12/20 10:00 am 2.6 ft 646 cfs
Fri12/20 04:00 pm 2.69 ft 685 cfs
Fri12/20 10:00 pm 2.83 ft 756 cfs
Sat12/21 04:00 am 3.23 ft 973 cfs

Snoqualmie River flood gauge data supplied by the
National Weather Service Northwest River Forecast Center.

Sign up for Floodzilla alerts.